WEATHER DATA

TODAY
Time Temp. Dewp. Hum. Wind dir Wind speed Wind gust Bar. 1h Prec. 24h Prec.
00:04 -1.2 -1.2 100 270 0.3 0.8 1024 0.0000
00:14 -1.2 -1.2 100 315 0.3 0.6 1024.1 0.0000
00:24 -1.2 -1.2 100 355 0.3 0.6 1024.2 0.0000 0.0000
00:34 -1.2 -1.2 100 304 0.3 0.6 1024.3 0.0000 0.0000
00:44 -1.2 -1.2 100 315 0.3 0.6 1024.5 0.0000 0.0000
00:54 -1.3 -1.3 100 315 0.3 0.6 1024.5
01:04 -1.4 -1.4 100 0 0.6 1024.6
01:11 -1.5 -1.5 100 0 0.3 0.6 1024.8 0.0000 0.0000
01:21 -1.5 -1.5 100 339 0.3 0.6 1024.7 0.0000 0.0000
01:31 -1.6 -1.6 100 270 0.3 0.6 1024.9 0.0000 0.0000
01:41 -1.8 -1.8 100 270 0.3 0.6 1025.1
01:51 -1.8 -1.8 100 270 0.6 0.8 1025.3
02:01 -1.9 -1.9 100 270 0.3 0.6 1025.7
02:11 -2.1 -2.1 100 270 0.3 0.6 1025.7
02:21 -2.2 -2.2 100 270 0.3 0.6 1025.9
02:31 -2.3 -2.3 100 270 0.3 0.8 1025.7
02:41 -2.4 -2.4 100 270 0.3 0.8 1025.9
02:51 -2.5 -2.5 100 270 0.3 0.6 1026
03:01 -2.5 -2.5 100 344 0.3 0.8 1026
03:11 -2.5 -2.5 100 345 0.3 0.8 1025.7
03:21 -2.4 -2.4 100 0 0.3 0.8 1025.6
03:31 -2.3 -2.3 100 315 0.3 0.8 1026
03:42 -2.2 -2.2 100 327 0.3 0.8 1026.4
03:51 -2.1 -2.1 100 315 0.3 0.8 1026.3
04:01 -2 -2 100 338 0.3 0.8 1026.2
04:11 -1.9 -1.9 100 315 0.6 0.8 1026.5
04:22 -1.8 -1.8 100 270 0.3 0.8 1026.7
04:31 -1.8 -1.8 100 315 0.3 0.8 1026.7
04:41 -1.7 -1.7 100 315 0.6 1.7 1026.8
04:52 -1.7 -1.7 100 270 0.3 0.8 1027.1
05:02 -1.6 -1.6 100 90 0.3 0.8 1027.1
05:10 -1.6 -1.6 100 328 0.6 1.4 1026.7
05:22 -1.6 -1.6 100 321 0.6 1.4 1026.7
05:32 -1.5 -1.5 100 315 0.6 1.4 1026.6
05:41 -1.5 -1.5 100 311 0.6 1.4 1026.7
05:51 -1.4 -1.4 100 90 0.3 1.4 1026.8
06:02 -1.3 -1.3 100 310 0.3 1.4 1026.7
06:12 -1.3 -1.3 100 270 0.3 1.4 1026.7
06:21 -1.2 -1.2 100 270 0.8 1.9 1026.9
06:31 -1.1 -1.1 100 288 0.6 1.7 1027
06:42 -1.1 -1.1 100 270 0.6 1.4 1027.1
06:54 -1 -1 100 304 0.6 1.4 1027.1 0.0000 0.0000
07:04 -0.9 -0.9 100 298 0.6 1.4 1027.1 0.0000 0.0000
07:14 -0.8 -0.8 100 303 0.3 1.4 1027 0.0000 0.0000
07:24 -0.8 -0.8 100 270 0.6 1.4 1027.2 0.0000 0.0000
07:33 -0.8 -0.8 100 301 0.6 1.4 1027.3 0.0000 0.0000
07:43 -0.8 -0.8 100 270 0.8 1.7 1027.5 0.0000 0.0000
07:53 -0.7 -0.7 100 281 0.8 1.7 1027.4 0.0000 0.0000
08:04 -0.7 -0.7 100 310 0.6 1.7 1027.2 0.0000 0.0000
08:14 -0.6 -0.6 100 270 0.6 1.7 1027.3 0.0000 0.0000
08:23 -0.6 -0.6 100 270 0.6 1.7 1027.4 0.0000 0.0000
08:34 -0.4 -0.4 100 285 0.6 1.4 1027.6 0.0000 0.0000
08:44 -0.3 -0.3 100 281 0.8 1.4 1027.7 0.0000 0.0000
08:53 -0.3 -0.3 100 270 0.6 1.4 1027.9 0.0000 0.0000
09:03 -0.2 -0.2 100 270 0.6 0.8 1027.9 0.0000 0.0000
09:14 -0.1 -0.1 100 315 0.3 0.8 1027.7 0.0000 0.0000
09:24 0 0 100 351 0.3 0.6 1027.8 0.0000 0.0000
09:34 0 0 100 270 0.3 0.8 1027.9 0.0000 0.0000
09:43 0 0 100 336 0.3 0.8 1027.8 0.0000 0.0000
09:54 0.1 0.1 100 306 0.6 1.7 1027.7 0.0000 0.0000
10:04 0.3 0.3 100 285 1.7 3.3 1027.7 0.0000 0.0000
10:14 0.4 0.4 100 222 1.7 2.8 1027.9 0.1160 0.1000
10:24 0.6 0.6 100 222 0.8 2.5 1027.7 0.1160 0.1000
10:34 1 1 100 270 1.4 2.5 1027.8 0.2320 0.2000
10:44 1.4 1.4 100 247 1.4 3.3 1027.9 0.2320 0.2000
10:55 1.8 1.8 100 244 0.8 1.9 1027.8 0.2320 0.2000
11:04 2 2 100 233 1.7 2.8 1027.8 0.1160 0.2000
11:17 2.4 2.4 100 325 1.4 2.8 1027.7 0.1160 0.2000
11:27 2.7 2.7 100 300 1.4 2.2 1027.6 0.0000 0.2000
11:37 3.1 3.1 100 161 1.4 2.5 1027.7 0.0000 0.2000
11:48 3.3 3.3 100 285 0.8 1.9 1027.6 0.0000 0.2000
11:58 3.6 3.6 100 191 0.8 1.7 1027.6 0.0000 0.2000
12:07 3.9 3.9 100 90 1.9 5.6 1027.7 0.0000 0.2000
12:17 4.1 4.1 100 59 1.7 5 1027.6 0.0000 0.2000
12:28 4.4 4.4 100 72 1.7 3.6 1027.6 0.0000 0.2000
12:38 4.6 4.6 100 71 1.9 5.6 1027.7 0.0000 0.2000
12:48 4.9 4.9 100 61 1.7 3.6 1027.5 0.0000 0.2000
12:58 5.1 5.1 100 74 1.7 3.6 1027.6 0.0000 0.2000
13:08 5.2 5.2 100 52 1.7 4.4 1027.5 0.0000 0.2000
13:18 5.3 5.3 100 347 1.9 4.2 1027.4 0.0000 0.2000
13:28 5.4 5.4 100 321 1.7 3.3 1027.3 0.0000 0.2000
13:39 5.5 5.5 100 343 1.4 2.5 1027.4 0.0000 0.2000
13:49 5.7 5.7 100 358 1.4 3.6 1027.2 0.0000 0.2000
13:58 5.9 5.9 100 8 1.4 3.6 1027.1 0.0000 0.2000
14:09 5.9 5.9 100 5 1.4 3.6 1027.2 0.0000 0.2000
14:19 5.8 5.8 100 40 1.4 1.9 1027.1 0.0000 0.2000
14:29 5.6 5.6 100 24 1.4 2.5 1026.9 0.0000 0.2000
14:39 5.5 5.5 100 42 1.4 2.8 1026.8 0.0000 0.2000
14:50 5.4 5.4 100 49 1.4 2.2 1026.7 0.0000 0.2000
14:59 5.3 5.3 100 53 0.8 1.9 1026.8 0.0000 0.2000
15:09 5.3 5.3 100 54 0.8 1.9 1026.8 0.0000 0.2000
15:19 5.2 5.2 100 51 0.8 1.7 1026.6 0.0000 0.2000
15:30 5.2 5.2 100 45 0.8 1.7 1026.7 0.0000 0.2000
15:40 5.2 5.2 100 55 0.8 1.9 1026.6 0.0000 0.2000
15:49 5.1 5.1 100 52 0.8 1.7 1026.6 0.0000 0.2000
16:00 5.1 5.1 100 57 0.6 1.7 1026.5 0.0000 0.2000
16:10 5.1 5.1 100 59 0.6 1.7 1026.4 0.0000 0.2000
16:20 5.1 5.1 100 49 0.8 2.5 1026.4 0.0000 0.2000
16:30 5 5 100 52 0.8 1.9 1026.3 0.0000 0.2000
16:40 5 5 100 66 0.8 2.5 1026.5 0.0000 0.2000
16:50 5.1 5.1 100 85 1.9 3.9 1026.2 0.0000 0.2000
17:00 5.1 5.1 100 83 2.2 4.2 1026.2 0.0000 0.2000
17:11 5.1 5.1 100 90 1.9 4.2 1026.1 0.0000 0.2000
17:30 5.1 5.1 100 73 1.4 4.2 1026.1 0.0000 0.2000
17:40 5.1 5.1 100 90 2.2 3.6 1026.1 0.0000 0.2000
18:01 5.1 5.1 100 93 3.3 5 1026.1 0.0000 0.2000
18:10 5.1 5.1 100 90 2.5 5 1026.1 0.0000 0.2000
18:21 5 5 100 83 2.5 4.2 1026.1 0.0000 0.2000
18:31 5 5 100 85 2.2 4.4 1026.1 0.0000 0.2000
18:41 5 5 100 84 2.2 3.9 1026.2 0.0000 0.2000
18:50 5 5 100 84 2.2 4.4 1026 0.0000 0.2000
19:01 5 5 100 90 3.3 5.6 1025.5 0.0000 0.2000
19:11 4.9 4.9 100 90 2.5 6.1 1025.5 0.0000 0.2000
19:21 4.9 4.9 100 83 2.5 4.2 1025.4 0.0000 0.2000
19:31 4.9 4.9 100 83 2.5 5 1025.2 0.0000 0.2000
19:41 4.9 4.9 100 82 2.8 4.2 1025 0.0000 0.2000
19:51 4.8 4.8 100 83 2.2 4.7 1025.1 0.0000 0.2000
20:01 4.8 4.8 100 82 1.9 3.9 1024.9 0.0000 0.2000
20:12 4.8 4.8 100 75 1.4 2.5 1024.9 0.0000 0.2000
20:21 4.8 4.8 100 76 1.7 3.3 1024.7 0.0000 0.2000
20:30 4.8 4.8 100 72 1.7 3.3 1024.8 0.0000 0.2000
20:42 4.8 4.8 100 73 1.7 3.6 1024.7 0.0000 0.2000
20:52 4.8 4.8 100 78 1.4 2.8 1024.7 0.0000 0.2000

DAY STATISTIC

2019-11-15
TEMPERATURE
AVERAGE
1.6
HIGH
5.9
13:58
LOW
-2.5
02:51
PRESSURE
AVERAGE
1026.5
HIGH
1027.9
08:53
LOW
1024.0
00:04
DEWPOINT
AVERAGE
1.6
HIGH
5.9
13:58
LOW
-2.5
02:51
HUMIDITY
AVERAGE
100
HIGH
100
00:04
LOW
100
00:04
WIND SPEED
AVERAGE
1.0
HIGH
3.3
18:01
WIND GUST
AVERAGE
2.2
HIGH
6.1
19:11
WIND DIRECTION
PREVAILING
E
23.6%
N
10.6
NE
14.6
E
23.6
SE
0.0
S
1.6
SW
4.1
W
23.6
NW
21.1
PRECIPITATION
RAIN HOUR
0.2
RAIN DAY
0.2
TEMPERATURE (°C)
LOW
-2.5
HIGH
5.9
AVERAGE
1.6
PRESSURE (hpa)
LOW
1024.0
HIGH
1027.9
AVERAGE
1026.5
DEVICE